sensor_id;sensor_type;location;lat;lon;timestamp;temperature;humidity
15615;DHT22;7907;51.368;6.730;2023-05-14T08:51:33;19.70;99.90
15615;DHT22;7907;51.368;6.730;2023-05-14T08:54:26;19.80;99.90
15615;DHT22;7907;51.368;6.730;2023-05-14T08:57:03;19.90;99.90
15615;DHT22;7907;51.368;6.730;2023-05-14T08:59:42;20.00;99.90
15615;DHT22;7907;51.368;6.730;2023-05-14T09:02:16;20.10;99.90
15615;DHT22;7907;51.368;6.730;2023-05-14T09:04:47;20.10;99.90
15615;DHT22;7907;51.368;6.730;2023-05-14T09:07:18;20.20;99.80
15615;DHT22;7907;51.368;6.730;2023-05-14T09:09:48;20.30;98.40
15615;DHT22;7907;51.368;6.730;2023-05-14T09:12:17;20.30;97.00
15615;DHT22;7907;51.368;6.730;2023-05-14T09:15:04;20.40;97.40
15615;DHT22;7907;51.368;6.730;2023-05-14T09:17:38;20.40;95.20
15615;DHT22;7907;51.368;6.730;2023-05-14T09:20:18;20.60;90.80
15615;DHT22;7907;51.368;6.730;2023-05-14T09:22:52;20.60;82.90
15615;DHT22;7907;51.368;6.730;2023-05-14T09:25:30;20.60;85.80
15615;DHT22;7907;51.368;6.730;2023-05-14T09:28:30;20.80;99.90
15615;DHT22;7907;51.368;6.730;2023-05-14T09:31:02;20.80;96.10
15615;DHT22;7907;51.368;6.730;2023-05-14T09:33:34;20.80;88.50
15615;DHT22;7907;51.368;6.730;2023-05-14T09:36:02;20.80;83.00
15615;DHT22;7907;51.368;6.730;2023-05-14T09:38:42;20.80;89.50
15615;DHT22;7907;51.368;6.730;2023-05-14T09:41:12;20.80;93.00
15615;DHT22;7907;51.368;6.730;2023-05-14T09:43:56;20.90;84.60
15615;DHT22;7907;51.368;6.730;2023-05-14T09:46:34;21.00;75.60
15615;DHT22;7907;51.368;6.730;2023-05-14T09:49:01;21.10;75.50
15615;DHT22;7907;51.368;6.730;2023-05-14T09:51:30;21.20;75.20
15615;DHT22;7907;51.368;6.730;2023-05-14T09:54:11;21.40;76.90
15615;DHT22;7907;51.368;6.730;2023-05-14T09:56:48;21.60;76.90
15615;DHT22;7907;51.368;6.730;2023-05-14T09:59:16;21.60;79.50
15615;DHT22;7907;51.368;6.730;2023-05-14T10:01:44;21.60;77.90
15615;DHT22;7907;51.368;6.730;2023-05-14T10:04:13;21.60;65.90
15615;DHT22;7907;51.368;6.730;2023-05-14T10:06:52;21.60;64.50
15615;DHT22;7907;51.368;6.730;2023-05-14T10:09:28;21.60;62.90
15615;DHT22;7907;51.368;6.730;2023-05-14T10:11:58;21.60;64.20
15615;DHT22;7907;51.368;6.730;2023-05-14T10:14:31;21.60;63.40
15615;DHT22;7907;51.368;6.730;2023-05-14T10:17:20;21.60;63.60
15615;DHT22;7907;51.368;6.730;2023-05-14T10:19:52;21.70;62.80
15615;DHT22;7907;51.368;6.730;2023-05-14T10:22:23;21.90;58.70
15615;DHT22;7907;51.368;6.730;2023-05-14T10:24:55;21.90;58.30
15615;DHT22;7907;51.368;6.730;2023-05-14T10:27:23;22.00;60.40
15615;DHT22;7907;51.368;6.730;2023-05-14T10:29:52;22.00;59.20
15615;DHT22;7907;51.368;6.730;2023-05-14T10:32:21;22.00;60.80
15615;DHT22;7907;51.368;6.730;2023-05-14T10:34:52;22.00;58.00
15615;DHT22;7907;51.368;6.730;2023-05-14T10:37:25;22.00;57.00
15615;DHT22;7907;51.368;6.730;2023-05-14T10:39:58;22.20;57.30
15615;DHT22;7907;51.368;6.730;2023-05-14T10:42:31;22.50;56.80
15615;DHT22;7907;51.368;6.730;2023-05-14T10:45:04;22.70;57.20
15615;DHT22;7907;51.368;6.730;2023-05-14T10:47:52;23.10;56.80
15615;DHT22;7907;51.368;6.730;2023-05-14T11:14:42;24.10;51.60
15615;DHT22;7907;51.368;6.730;2023-05-14T11:17:10;24.10;49.60
15615;DHT22;7907;51.368;6.730;2023-05-14T11:19:54;24.10;50.30
15615;DHT22;7907;51.368;6.730;2023-05-14T11:22:28;24.30;49.10
15615;DHT22;7907;51.368;6.730;2023-05-14T11:25:13;24.30;48.20
15615;DHT22;7907;51.368;6.730;2023-05-14T11:30:53;24.20;49.40
15615;DHT22;7907;51.368;6.730;2023-05-14T11:34:05;24.30;48.50
15615;DHT22;7907;51.368;6.730;2023-05-14T11:36:52;24.40;47.40
15615;DHT22;7907;51.368;6.730;2023-05-14T11:39:24;24.50;45.80
15615;DHT22;7907;51.368;6.730;2023-05-14T11:45:23;24.50;46.80
15615;DHT22;7907;51.368;6.730;2023-05-14T11:48:33;24.50;43.30
15615;DHT22;7907;51.368;6.730;2023-05-14T11:51:14;24.80;45.50
15615;DHT22;7907;51.368;6.730;2023-05-14T11:54:14;25.00;44.30
15615;DHT22;7907;51.368;6.730;2023-05-14T11:56:50;25.10;43.30
15615;DHT22;7907;51.368;6.730;2023-05-14T12:00:37;25.10;43.00
15615;DHT22;7907;51.368;6.730;2023-05-14T12:02:26;25.10;43.60
15615;DHT22;7907;51.368;6.730;2023-05-14T12:04:59;25.00;43.40
15615;DHT22;7907;51.368;6.730;2023-05-14T12:07:32;25.00;42.90
15615;DHT22;7907;51.368;6.730;2023-05-14T12:10:22;25.20;43.70
15615;DHT22;7907;51.368;6.730;2023-05-14T12:13:18;25.10;44.80
15615;DHT22;7907;51.368;6.730;2023-05-14T12:15:54;25.40;44.80
15615;DHT22;7907;51.368;6.730;2023-05-14T12:18:23;25.50;44.90
15615;DHT22;7907;51.368;6.730;2023-05-14T12:21:06;25.50;43.20
15615;DHT22;7907;51.368;6.730;2023-05-14T12:23:53;25.90;42.90
15615;DHT22;7907;51.368;6.730;2023-05-14T12:26:26;26.30;41.80
15615;DHT22;7907;51.368;6.730;2023-05-14T12:29:14;26.60;43.30
15615;DHT22;7907;51.368;6.730;2023-05-14T12:31:46;26.60;41.30
15615;DHT22;7907;51.368;6.730;2023-05-14T12:34:15;26.30;40.80
15615;DHT22;7907;51.368;6.730;2023-05-14T12:36:45;26.40;41.10
15615;DHT22;7907;51.368;6.730;2023-05-14T12:39:12;26.60;40.20
15615;DHT22;7907;51.368;6.730;2023-05-14T12:41:54;26.80;40.00
15615;DHT22;7907;51.368;6.730;2023-05-14T12:44:36;27.00;42.20
15615;DHT22;7907;51.368;6.730;2023-05-14T12:47:13;27.30;44.90
15615;DHT22;7907;51.368;6.730;2023-05-14T12:49:49;27.20;45.60
15615;DHT22;7907;51.368;6.730;2023-05-14T12:52:21;26.70;44.10
15615;DHT22;7907;51.368;6.730;2023-05-14T12:59:55;26.20;45.20
15615;DHT22;7907;51.368;6.730;2023-05-14T13:02:22;26.20;45.60
15615;DHT22;7907;51.368;6.730;2023-05-14T13:04:50;26.50;43.90
15615;DHT22;7907;51.368;6.730;2023-05-14T13:07:26;27.00;44.20
15615;DHT22;7907;51.368;6.730;2023-05-14T13:09:57;27.20;44.10
15615;DHT22;7907;51.368;6.730;2023-05-14T13:12:33;27.00;43.70
15615;DHT22;7907;51.368;6.730;2023-05-14T13:15:02;26.70;43.50
15615;DHT22;7907;51.368;6.730;2023-05-14T13:17:30;26.60;44.70
15615;DHT22;7907;51.368;6.730;2023-05-14T13:41:29;26.50;43.80
15615;DHT22;7907;51.368;6.730;2023-05-14T13:44:05;27.70;41.80
15615;DHT22;7907;51.368;6.730;2023-05-14T13:46:35;28.10;39.50
15615;DHT22;7907;51.368;6.730;2023-05-14T13:49:07;28.40;40.20
15615;DHT22;7907;51.368;6.730;2023-05-14T13:54:35;29.40;39.80
15615;DHT22;7907;51.368;6.730;2023-05-14T13:57:19;29.60;40.50
15615;DHT22;7907;51.368;6.730;2023-05-14T14:00:16;29.50;38.80
15615;DHT22;7907;51.368;6.730;2023-05-14T14:03:18;29.60;40.50
15615;DHT22;7907;51.368;6.730;2023-05-14T14:06:07;29.50;39.80
15615;DHT22;7907;51.368;6.730;2023-05-14T14:08:56;29.30;40.50
15615;DHT22;7907;51.368;6.730;2023-05-14T14:11:28;28.90;39.50
15615;DHT22;7907;51.368;6.730;2023-05-14T14:17:33;28.60;39.80
15615;DHT22;7907;51.368;6.730;2023-05-14T14:20:07;28.60;40.50
15615;DHT22;7907;51.368;6.730;2023-05-14T14:22:40;28.50;39.80
15615;DHT22;7907;51.368;6.730;2023-05-14T14:25:09;28.60;40.00
15615;DHT22;7907;51.368;6.730;2023-05-14T14:27:37;29.00;40.30
15615;DHT22;7907;51.368;6.730;2023-05-14T14:30:07;29.50;39.50
15615;DHT22;7907;51.368;6.730;2023-05-14T14:32:42;30.00;37.80
15615;DHT22;7907;51.368;6.730;2023-05-14T14:35:33;30.40;37.90
15615;DHT22;7907;51.368;6.730;2023-05-14T14:38:03;30.70;36.30
15615;DHT22;7907;51.368;6.730;2023-05-14T14:40:36;30.60;37.70
15615;DHT22;7907;51.368;6.730;2023-05-14T14:43:03;30.60;37.70
15615;DHT22;7907;51.368;6.730;2023-05-14T14:45:30;30.10;36.80
15615;DHT22;7907;51.368;6.730;2023-05-14T14:48:25;29.50;37.50
15615;DHT22;7907;51.368;6.730;2023-05-14T14:50:57;28.60;38.10
15615;DHT22;7907;51.368;6.730;2023-05-14T14:53:47;27.90;38.80
15615;DHT22;7907;51.368;6.730;2023-05-14T14:56:16;27.40;40.50
15615;DHT22;7907;51.368;6.730;2023-05-14T14:58:47;27.20;40.90
15615;DHT22;7907;51.368;6.730;2023-05-14T15:03:54;27.20;40.80
15615;DHT22;7907;51.368;6.730;2023-05-14T15:06:41;27.30;41.60
15615;DHT22;7907;51.368;6.730;2023-05-14T15:09:27;27.60;42.30
15615;DHT22;7907;51.368;6.730;2023-05-14T15:12:00;27.40;41.50
15615;DHT22;7907;51.368;6.730;2023-05-14T15:14:27;27.50;42.20
15615;DHT22;7907;51.368;6.730;2023-05-14T15:17:09;27.40;42.00
15615;DHT22;7907;51.368;6.730;2023-05-14T15:19:37;27.30;43.10
15615;DHT22;7907;51.368;6.730;2023-05-14T15:24:45;26.80;42.90
15615;DHT22;7907;51.368;6.730;2023-05-14T15:30:03;26.30;42.70
15615;DHT22;7907;51.368;6.730;2023-05-14T15:33:20;26.20;43.60
15615;DHT22;7907;51.368;6.730;2023-05-14T15:35:54;25.90;44.60
15615;DHT22;7907;51.368;6.730;2023-05-14T15:38:34;25.80;45.00
15615;DHT22;7907;51.368;6.730;2023-05-14T15:41:05;25.70;45.90
15615;DHT22;7907;51.368;6.730;2023-05-14T15:43:50;25.50;46.40
15615;DHT22;7907;51.368;6.730;2023-05-14T15:46:18;25.30;46.50
15615;DHT22;7907;51.368;6.730;2023-05-14T15:48:49;25.20;46.90
15615;DHT22;7907;51.368;6.730;2023-05-14T15:51:22;24.90;46.80
15615;DHT22;7907;51.368;6.730;2023-05-14T15:53:55;24.80;47.70
15615;DHT22;7907;51.368;6.730;2023-05-14T16:04:37;24.40;48.50
15615;DHT22;7907;51.368;6.730;2023-05-14T16:07:22;24.10;48.00
15615;DHT22;7907;51.368;6.730;2023-05-14T16:10:05;23.90;48.30
15615;DHT22;7907;51.368;6.730;2023-05-14T16:20:25;23.60;50.80
15615;DHT22;7907;51.368;6.730;2023-05-14T16:23:05;23.50;51.10
15615;DHT22;7907;51.368;6.730;2023-05-14T16:51:36;23.40;52.60
15615;DHT22;7907;51.368;6.730;2023-05-14T16:54:10;23.20;51.20
15615;DHT22;7907;51.368;6.730;2023-05-14T16:56:38;23.00;51.50
15615;DHT22;7907;51.368;6.730;2023-05-14T16:59:06;22.90;52.00
15615;DHT22;7907;51.368;6.730;2023-05-14T17:01:38;22.90;52.50
15615;DHT22;7907;51.368;6.730;2023-05-14T17:04:08;22.90;52.50
15615;DHT22;7907;51.368;6.730;2023-05-14T17:06:47;22.90;52.50
15615;DHT22;7907;51.368;6.730;2023-05-14T17:09:29;22.80;52.60
15615;DHT22;7907;51.368;6.730;2023-05-14T17:11:56;22.80;52.70
15615;DHT22;7907;51.368;6.730;2023-05-14T17:14:24;22.80;53.20
15615;DHT22;7907;51.368;6.730;2023-05-14T17:16:52;22.80;53.40
15615;DHT22;7907;51.368;6.730;2023-05-14T17:19:23;22.70;53.30
15615;DHT22;7907;51.368;6.730;2023-05-14T17:21:58;22.80;53.60
15615;DHT22;7907;51.368;6.730;2023-05-14T17:24:35;22.70;53.30
15615;DHT22;7907;51.368;6.730;2023-05-14T17:27:09;22.60;52.60
15615;DHT22;7907;51.368;6.730;2023-05-14T17:29:50;22.50;53.30
15615;DHT22;7907;51.368;6.730;2023-05-14T17:32:19;22.40;53.10
15615;DHT22;7907;51.368;6.730;2023-05-14T17:34:46;22.40;53.10
15615;DHT22;7907;51.368;6.730;2023-05-14T17:37:15;22.30;53.90
15615;DHT22;7907;51.368;6.730;2023-05-14T17:39:44;22.20;53.70
15615;DHT22;7907;51.368;6.730;2023-05-14T17:42:14;22.10;53.60
15615;DHT22;7907;51.368;6.730;2023-05-14T17:44:45;22.10;54.20
15615;DHT22;7907;51.368;6.730;2023-05-14T17:47:14;22.00;54.00
15615;DHT22;7907;51.368;6.730;2023-05-14T17:49:45;21.90;54.10
15615;DHT22;7907;51.368;6.730;2023-05-14T17:52:18;21.80;54.30
15615;DHT22;7907;51.368;6.730;2023-05-14T17:54:45;21.80;54.50
15615;DHT22;7907;51.368;6.730;2023-05-14T17:57:13;21.80;54.50
15615;DHT22;7907;51.368;6.730;2023-05-14T17:59:40;21.70;54.50
15615;DHT22;7907;51.368;6.730;2023-05-14T18:02:07;21.70;55.00
15615;DHT22;7907;51.368;6.730;2023-05-14T18:04:35;21.60;55.10
15615;DHT22;7907;51.368;6.730;2023-05-14T18:07:02;21.60;55.30
15615;DHT22;7907;51.368;6.730;2023-05-14T18:09:31;21.50;55.80
15615;DHT22;7907;51.368;6.730;2023-05-14T18:12:25;21.40;56.10
15615;DHT22;7907;51.368;6.730;2023-05-14T18:14:53;21.40;55.90
15615;DHT22;7907;51.368;6.730;2023-05-14T18:17:28;21.30;55.90
15615;DHT22;7907;51.368;6.730;2023-05-14T18:19:55;21.30;56.10
15615;DHT22;7907;51.368;6.730;2023-05-14T18:22:32;21.20;56.10
15615;DHT22;7907;51.368;6.730;2023-05-14T18:25:03;21.20;56.40
15615;DHT22;7907;51.368;6.730;2023-05-14T18:27:38;21.20;56.20
15615;DHT22;7907;51.368;6.730;2023-05-14T18:30:16;21.10;56.70
15615;DHT22;7907;51.368;6.730;2023-05-14T18:32:43;21.00;56.60
15615;DHT22;7907;51.368;6.730;2023-05-14T18:35:11;20.90;56.70
15615;DHT22;7907;51.368;6.730;2023-05-14T18:37:39;20.90;56.90
15615;DHT22;7907;51.368;6.730;2023-05-14T18:40:09;20.80;57.10
15615;DHT22;7907;51.368;6.730;2023-05-14T18:42:42;20.80;57.40
15615;DHT22;7907;51.368;6.730;2023-05-14T18:45:17;20.70;57.40
15615;DHT22;7907;51.368;6.730;2023-05-14T18:48:01;20.70;57.30
15615;DHT22;7907;51.368;6.730;2023-05-14T18:51:05;20.60;57.60
15615;DHT22;7907;51.368;6.730;2023-05-14T18:53:41;20.60;57.60
15615;DHT22;7907;51.368;6.730;2023-05-14T18:56:44;20.50;57.80
15615;DHT22;7907;51.368;6.730;2023-05-14T19:03:07;20.30;58.40
15615;DHT22;7907;51.368;6.730;2023-05-14T19:05:41;20.30;58.70
15615;DHT22;7907;51.368;6.730;2023-05-14T19:15:22;20.10;59.30
15615;DHT22;7907;51.368;6.730;2023-05-14T19:17:57;20.10;59.70
15615;DHT22;7907;51.368;6.730;2023-05-14T19:20:58;20.00;59.60
15615;DHT22;7907;51.368;6.730;2023-05-14T19:29:20;19.90;60.30
15615;DHT22;7907;51.368;6.730;2023-05-14T19:31:59;19.90;60.90
15615;DHT22;7907;51.368;6.730;2023-05-14T20:25:30;19.00;64.70
15615;DHT22;7907;51.368;6.730;2023-05-14T20:28:09;19.00;64.60
15615;DHT22;7907;51.368;6.730;2023-05-14T20:30:57;19.00;64.90
15615;DHT22;7907;51.368;6.730;2023-05-14T20:34:47;19.00;65.30
15615;DHT22;7907;51.368;6.730;2023-05-14T21:08:16;18.50;79.90
15615;DHT22;7907;51.368;6.730;2023-05-14T21:10:48;18.50;91.50
15615;DHT22;7907;51.368;6.730;2023-05-14T21:13:22;18.40;98.30
15615;DHT22;7907;51.368;6.730;2023-05-14T21:15:53;18.30;99.90
15615;DHT22;7907;51.368;6.730;2023-05-14T21:18:23;18.20;99.90
15615;DHT22;7907;51.368;6.730;2023-05-14T21:21:07;18.20;99.90
15615;DHT22;7907;51.368;6.730;2023-05-14T21:24:00;18.10;99.90
15615;DHT22;7907;51.368;6.730;2023-05-14T21:26:36;18.00;99.90
15615;DHT22;7907;51.368;6.730;2023-05-14T21:29:11;18.00;99.90
15615;DHT22;7907;51.368;6.730;2023-05-14T21:31:49;18.00;99.90
15615;DHT22;7907;51.368;6.730;2023-05-14T21:34:36;18.00;99.90
15615;DHT22;7907;51.368;6.730;2023-05-14T21:37:41;17.90;99.90
15615;DHT22;7907;51.368;6.730;2023-05-14T21:40:34;17.80;99.90
15615;DHT22;7907;51.368;6.730;2023-05-14T21:43:07;17.90;99.90
15615;DHT22;7907;51.368;6.730;2023-05-14T21:45:37;17.70;99.90
15615;DHT22;7907;51.368;6.730;2023-05-14T21:51:39;17.60;99.90
15615;DHT22;7907;51.368;6.730;2023-05-14T21:54:18;17.60;99.90
15615;DHT22;7907;51.368;6.730;2023-05-14T21:56:56;17.60;99.90
15615;DHT22;7907;51.368;6.730;2023-05-14T21:59:29;17.40;99.90
15615;DHT22;7907;51.368;6.730;2023-05-14T22:02:17;17.40;99.90
15615;DHT22;7907;51.368;6.730;2023-05-14T22:05:09;17.40;99.90
15615;DHT22;7907;51.368;6.730;2023-05-14T22:07:45;17.30;99.90
15615;DHT22;7907;51.368;6.730;2023-05-14T22:10:55;17.20;99.90
15615;DHT22;7907;51.368;6.730;2023-05-14T22:30:14;16.90;99.90
15615;DHT22;7907;51.368;6.730;2023-05-14T22:33:22;16.90;99.90
15615;DHT22;7907;51.368;6.730;2023-05-14T22:36:04;16.80;99.90
15615;DHT22;7907;51.368;6.730;2023-05-14T22:39:13;16.70;99.90
15615;DHT22;7907;51.368;6.730;2023-05-14T22:41:57;16.70;99.90
15615;DHT22;7907;51.368;6.730;2023-05-14T22:44:33;16.70;99.90
15615;DHT22;7907;51.368;6.730;2023-05-14T22:47:12;16.60;99.90
15615;DHT22;7907;51.368;6.730;2023-05-14T22:55:50;16.40;99.90
15615;DHT22;7907;51.368;6.730;2023-05-14T22:59:01;16.40;99.90
15615;DHT22;7907;51.368;6.730;2023-05-14T23:01:45;16.30;99.90
15615;DHT22;7907;51.368;6.730;2023-05-14T23:04:55;16.30;99.90
15615;DHT22;7907;51.368;6.730;2023-05-14T23:07:28;16.20;99.90
15615;DHT22;7907;51.368;6.730;2023-05-14T23:10:17;16.20;99.90
15615;DHT22;7907;51.368;6.730;2023-05-14T23:15:14;16.10;99.90
15615;DHT22;7907;51.368;6.730;2023-05-14T23:16:33;16.10;99.90
15615;DHT22;7907;51.368;6.730;2023-05-14T23:55:48;15.50;99.90
